Marlinton, WV

4:04 AM EST on March 06, 2015 (GMT -0500)
RAWS IRAWS 22 (HIDDEN VALLEY) VA US | Change Station
CLOSE
Current Station
Personal Weather Station
Location: Bacova, VA
Elevation: 1827 ft
Nearby Weather Stations

Elev 1827 ft 38.10 °N, 79.81 °W | Updated 54 minutes ago

Partly Cloudy
Partly Cloudy
5 °F
Feels Like 5 °F
N
0
Wind Variable Wind from North
Gusts 0.0 mph

Today
High -- | Low -- °F
--% Chance of Precip.
Yesterday
High -- | Low -- °F
Precip. -- in
6:45 AM 6:18 PM
Full, 100% visible
Pressure 30.16 in
Visibility 10.0 miles
Clouds Clear
Windchill 5 °F
Dew Point 1 °F
Humidity 83%
Rainfall in
Snow Depth Not available.
UV 0 out of 12
Pollen .70 out of 12
Air Quality Not available.
Flu Activity Not available.
METAR KHSP 060855Z AUTO 30006KT 10SM CLR M15/M16 A3016 RMK AO2 T11541164

More Conditions Fewer Conditions

Pressure 30.16 in
Visibility 10.0 miles
Clouds Clear
Windchill 5 °F
Dew Point 1 °F
Humidity 83%
Rainfall in
Snow Depth Not available.
UV 0 out of 12
Pollen .70 out of 12
Air Quality Not available.
Flu Activity Not available.
METAR KHSP 060855Z AUTO 30006KT 10SM CLR M15/M16 A3016 RMK AO2 T11541164

More Conditions Fewer Conditions

10-Day Weather Forecast

Almanac

Astronomy

Mar. 06, 2015 Rise Set
Actual Time
Civil Twilight
Nautical Twilight
Astronomical Twilight
Moon
Length of Visible Light
Length of Day
Tomorrow will be .
, % of the Moon is Illuminated

Today's Extremes

State Highs State Lows

Community

WunderPhotos

Upload Photos

1,803,212 photos uploaded!

WunderBlogs® & News

Nearby

Air Quality

  Air Quality AQ Index Pollutant
Not available.

Snow Depth

Station Depth Elevation

Earthquake Activity

City Distance Mag. Time & Date
Minimum magnitude displayed is 2.5.

Coastal Water Temperatures

Place Temperature

Nearby Weather Stations